createdAt,value
2022-10-20T00:01:41.490Z,8.13
2022-10-20T00:04:07.947Z,8.10
2022-10-20T00:06:34.411Z,9.10
2022-10-20T00:09:03.783Z,9.18
2022-10-20T00:11:31.212Z,9.77
2022-10-20T00:13:59.463Z,9.68
2022-10-20T00:16:28.591Z,7.93
2022-10-20T00:18:56.037Z,9.05
2022-10-20T00:21:25.885Z,9.00
2022-10-20T00:23:53.253Z,9.60
2022-10-20T00:26:24.738Z,9.85
2022-10-20T00:28:51.968Z,8.57
2022-10-20T00:31:20.354Z,9.27
2022-10-20T00:33:47.144Z,8.63
2022-10-20T00:36:16.422Z,8.32
2022-10-20T00:38:43.722Z,8.80
2022-10-20T00:41:14.059Z,8.88
2022-10-20T00:43:51.704Z,9.07
2022-10-20T00:46:28.727Z,9.75
2022-10-20T00:48:59.122Z,8.63
2022-10-20T00:51:28.806Z,8.65
2022-10-20T00:54:03.227Z,8.10
2022-10-20T00:56:29.780Z,7.97
2022-10-20T00:58:56.455Z,7.55
2022-10-20T01:01:22.931Z,10.00
2022-10-20T01:03:51.292Z,9.02
2022-10-20T01:06:20.357Z,8.45
2022-10-20T01:08:47.092Z,8.57
2022-10-20T01:11:35.153Z,8.45
2022-10-20T01:14:12.671Z,8.35
2022-10-20T01:17:06.700Z,10.07
2022-10-20T01:19:45.315Z,6.97
2022-10-20T01:22:11.684Z,7.90
2022-10-20T01:25:06.268Z,7.57
2022-10-20T01:27:38.511Z,7.78
2022-10-20T01:30:07.831Z,8.32
2022-10-20T01:32:46.488Z,7.82
2022-10-20T01:35:31.592Z,7.45
2022-10-20T01:38:20.271Z,8.13
2022-10-20T01:41:02.750Z,8.10
2022-10-20T01:43:35.936Z,9.27
2022-10-20T01:46:04.362Z,8.85
2022-10-20T01:48:34.506Z,8.23
2022-10-20T01:51:03.967Z,7.57
2022-10-20T01:53:30.498Z,8.20
2022-10-20T01:55:59.694Z,8.23
2022-10-20T01:58:32.862Z,8.98
2022-10-20T02:01:08.246Z,7.97
2022-10-20T02:06:44.629Z,8.43
2022-10-20T02:09:44.159Z,7.85
2022-10-20T02:12:17.567Z,7.85
2022-10-20T02:14:45.256Z,8.48
2022-10-20T02:17:15.633Z,8.05
2022-10-20T02:19:45.527Z,8.55
2022-10-20T02:22:15.227Z,9.30
2022-10-20T02:24:45.468Z,8.82
2022-10-20T02:27:18.970Z,8.48
2022-10-20T02:29:51.642Z,8.48
2022-10-20T02:32:21.570Z,9.02
2022-10-20T02:34:48.066Z,8.75
2022-10-20T02:37:14.619Z,9.57
2022-10-20T02:39:41.059Z,9.43
2022-10-20T02:42:07.774Z,8.05
2022-10-20T02:44:44.226Z,8.23
2022-10-20T02:47:10.776Z,9.70
2022-10-20T02:49:37.201Z,8.30
2022-10-20T02:52:03.695Z,8.68
2022-10-20T02:54:30.127Z,9.38
2022-10-20T02:56:59.638Z,8.52
2022-10-20T02:59:26.052Z,9.07
2022-10-20T03:01:52.665Z,8.25
2022-10-20T03:04:19.332Z,8.45
2022-10-20T03:06:46.063Z,7.75
2022-10-20T03:09:12.562Z,8.20
2022-10-20T03:11:41.705Z,7.68
2022-10-20T03:14:08.187Z,7.93
2022-10-20T03:16:34.630Z,8.57
2022-10-20T03:19:03.973Z,8.38
2022-10-20T03:21:34.010Z,8.73
2022-10-20T03:24:01.659Z,7.65
2022-10-20T03:26:28.120Z,8.70
2022-10-20T03:28:55.201Z,8.85
2022-10-20T03:31:21.734Z,8.25
2022-10-20T03:33:48.158Z,8.68
2022-10-20T03:36:14.596Z,8.55
2022-10-20T03:38:42.999Z,8.27
2022-10-20T03:41:12.218Z,9.15
2022-10-20T03:43:40.127Z,9.05
2022-10-20T03:46:09.108Z,8.60
2022-10-20T03:48:36.086Z,9.18
2022-10-20T03:51:03.622Z,9.77
2022-10-20T03:53:33.380Z,9.00
2022-10-20T03:55:59.761Z,8.70
2022-10-20T03:58:26.180Z,8.30
2022-10-20T04:00:52.930Z,8.57
2022-10-20T04:03:19.353Z,9.05
2022-10-20T04:05:46.128Z,9.73
2022-10-20T04:08:12.669Z,9.65
2022-10-20T04:10:39.232Z,8.85
2022-10-20T04:13:05.841Z,10.38
2022-10-20T04:15:32.540Z,9.32
2022-10-20T04:17:59.080Z,9.18
2022-10-20T04:20:26.003Z,8.98
2022-10-20T04:22:52.462Z,10.27
2022-10-20T04:25:18.969Z,9.32
2022-10-20T04:27:45.631Z,9.77
2022-10-20T04:30:12.277Z,9.05
2022-10-20T04:32:38.775Z,9.65
2022-10-20T04:35:05.722Z,9.13
2022-10-20T04:37:32.144Z,10.20
2022-10-20T04:39:58.721Z,9.07
2022-10-20T04:42:25.322Z,9.38
2022-10-20T04:44:51.893Z,9.77
2022-10-20T04:47:18.459Z,8.98
2022-10-20T04:49:44.858Z,9.90
2022-10-20T04:52:11.343Z,9.05
2022-10-20T04:54:37.809Z,9.70
2022-10-20T04:57:06.123Z,9.23
2022-10-20T04:59:32.784Z,9.98
2022-10-20T05:01:59.307Z,10.10
2022-10-20T05:04:25.955Z,10.40
2022-10-20T05:06:55.159Z,10.40
2022-10-20T05:09:21.571Z,10.43
2022-10-20T05:11:47.988Z,10.43
2022-10-20T05:14:14.435Z,9.65
2022-10-20T05:16:40.893Z,10.43
2022-10-20T05:19:07.393Z,9.43
2022-10-20T05:21:37.701Z,9.38
2022-10-20T05:24:05.484Z,10.65
2022-10-20T05:26:36.447Z,9.65
2022-10-20T05:29:07.913Z,11.02
2022-10-20T05:31:39.881Z,11.40
2022-10-20T05:34:12.578Z,9.70
2022-10-20T05:36:39.240Z,11.60
2022-10-20T05:39:05.915Z,10.68
2022-10-20T05:41:38.075Z,12.68
2022-10-20T05:44:08.629Z,11.05
2022-10-20T05:46:46.642Z,10.25
2022-10-20T05:49:16.602Z,11.02
2022-10-20T05:51:44.617Z,11.73
2022-10-20T05:54:12.695Z,11.00
2022-10-20T05:56:39.616Z,11.25
2022-10-20T05:59:08.625Z,10.30
2022-10-20T06:01:50.201Z,10.20
2022-10-20T06:04:19.391Z,10.63
2022-10-20T06:06:45.920Z,12.30
2022-10-20T06:09:12.599Z,11.00
2022-10-20T06:11:39.889Z,11.38
2022-10-20T06:14:07.847Z,11.35
2022-10-20T06:16:34.875Z,10.27
2022-10-20T06:19:01.798Z,10.73
2022-10-20T06:21:31.218Z,11.43
2022-10-20T06:23:59.409Z,11.10
2022-10-20T06:26:32.777Z,10.52
2022-10-20T06:29:04.390Z,10.98
2022-10-20T06:31:43.679Z,11.02
2022-10-20T06:34:13.761Z,10.43
2022-10-20T06:36:41.882Z,11.85
2022-10-20T06:39:10.914Z,13.25
2022-10-20T06:41:40.127Z,11.88
2022-10-20T06:44:07.375Z,11.18
2022-10-20T06:46:36.487Z,11.52
2022-10-20T06:49:05.459Z,11.90
2022-10-20T06:51:33.252Z,11.38
2022-10-20T06:54:00.590Z,11.60
2022-10-20T06:56:29.260Z,11.27
2022-10-20T06:59:01.848Z,12.30
2022-10-20T07:01:33.535Z,12.88
2022-10-20T07:04:06.546Z,12.82
2022-10-20T07:06:35.988Z,11.65
2022-10-20T07:09:04.054Z,13.05
2022-10-20T07:11:31.976Z,12.70
2022-10-20T07:13:59.345Z,12.32
2022-10-20T07:16:28.241Z,12.43
2022-10-20T07:18:55.530Z,11.63
2022-10-20T07:21:30.741Z,12.18
2022-10-20T07:24:01.856Z,12.55
2022-10-20T07:26:31.551Z,11.93
2022-10-20T07:28:59.596Z,11.90
2022-10-20T07:31:35.029Z,12.45
2022-10-20T07:34:13.776Z,11.43
2022-10-20T07:36:49.921Z,12.25
2022-10-20T07:39:16.815Z,10.88
2022-10-20T07:41:47.712Z,13.82
2022-10-20T07:44:14.576Z,13.25
2022-10-20T07:46:41.022Z,14.25
2022-10-20T07:49:38.177Z,13.07
2022-10-20T07:51:53.977Z,11.75
2022-10-20T07:54:20.480Z,12.88
2022-10-20T07:56:46.924Z,14.18
2022-10-20T07:59:14.144Z,13.18
2022-10-20T08:01:41.174Z,13.35
2022-10-20T08:04:07.971Z,12.68
2022-10-20T08:06:35.103Z,12.32
2022-10-20T08:09:01.958Z,13.77
2022-10-20T08:11:28.462Z,12.63
2022-10-20T08:13:54.966Z,11.98
2022-10-20T08:16:26.300Z,13.93
2022-10-20T08:19:10.486Z,13.98
2022-10-20T08:21:37.070Z,12.35
2022-10-20T08:24:03.832Z,11.63
2022-10-20T08:26:30.384Z,12.18
2022-10-20T08:28:57.308Z,11.98
2022-10-20T08:31:23.914Z,12.38
2022-10-20T08:33:53.004Z,11.82
2022-10-20T08:36:20.422Z,11.85
2022-10-20T08:38:46.943Z,12.25
2022-10-20T08:41:16.491Z,13.13
2022-10-20T08:43:43.309Z,11.38
2022-10-20T08:46:15.122Z,12.45
2022-10-20T08:48:42.649Z,11.25
2022-10-20T08:51:19.808Z,11.68
2022-10-20T08:53:47.883Z,13.50
2022-10-20T08:56:15.257Z,13.15
2022-10-20T08:58:44.509Z,12.95
2022-10-20T09:01:35.858Z,13.38
2022-10-20T09:04:32.713Z,13.32
2022-10-20T09:07:03.036Z,13.45
2022-10-20T09:09:32.005Z,12.32
2022-10-20T09:12:05.509Z,13.07
2022-10-20T09:14:35.717Z,13.00
2022-10-20T09:17:02.875Z,11.68
2022-10-20T09:19:30.086Z,11.82
2022-10-20T09:21:59.372Z,10.75
2022-10-20T09:24:29.892Z,11.48
2022-10-20T09:26:59.498Z,11.55
2022-10-20T09:29:38.015Z,10.30
2022-10-20T09:32:44.880Z,11.55
2022-10-20T09:35:19.374Z,11.25
2022-10-20T09:37:52.721Z,11.00
2022-10-20T09:40:19.941Z,11.73
2022-10-20T09:42:54.511Z,12.02
2022-10-20T09:45:24.748Z,10.93
2022-10-20T09:48:00.587Z,11.32
2022-10-20T09:50:30.836Z,10.90
2022-10-20T09:52:59.363Z,10.48
2022-10-20T09:55:35.478Z,10.73
2022-10-20T09:58:04.917Z,10.73
2022-10-20T10:00:37.868Z,10.82
2022-10-20T10:03:21.086Z,10.80
2022-10-20T10:06:00.947Z,11.55
2022-10-20T10:08:40.614Z,12.20
2022-10-20T10:11:18.573Z,10.95
2022-10-20T10:13:47.736Z,11.60
2022-10-20T10:16:18.304Z,10.68
2022-10-20T10:18:54.359Z,10.43
2022-10-20T10:21:21.576Z,10.32
2022-10-20T10:23:53.911Z,9.85
2022-10-20T10:26:45.312Z,9.60
2022-10-20T10:29:19.461Z,10.50
2022-10-20T10:31:51.766Z,9.60
2022-10-20T10:34:18.160Z,10.55
2022-10-20T10:36:44.836Z,11.02
2022-10-20T10:39:14.579Z,9.40
2022-10-20T10:41:52.834Z,8.85
2022-10-20T10:44:30.660Z,7.57
2022-10-20T10:47:25.398Z,7.43
2022-10-20T10:50:19.203Z,8.50
2022-10-20T10:53:04.020Z,8.10
2022-10-20T10:55:49.107Z,7.43
2022-10-20T10:58:37.725Z,6.60
2022-10-20T11:01:07.147Z,7.30
2022-10-20T11:03:56.320Z,6.43
2022-10-20T11:06:28.757Z,6.80
2022-10-20T11:09:01.071Z,7.38
2022-10-20T11:11:40.951Z,7.20
2022-10-20T11:14:07.329Z,7.18
2022-10-20T11:16:45.149Z,5.57
2022-10-20T11:19:30.584Z,7.30
2022-10-20T11:22:24.307Z,6.97
2022-10-20T11:25:33.002Z,7.10
2022-10-20T11:28:00.342Z,7.38
2022-10-20T11:30:27.451Z,7.70
2022-10-20T11:33:16.999Z,8.45
2022-10-20T11:35:51.819Z,6.75
2022-10-20T11:38:32.338Z,8.48
2022-10-20T11:41:26.706Z,7.90
2022-10-20T11:44:06.145Z,8.27
2022-10-20T11:46:47.507Z,8.27
2022-10-20T11:49:14.118Z,7.28
2022-10-20T11:51:52.625Z,9.15
2022-10-20T11:54:21.658Z,8.68
2022-10-20T11:56:54.231Z,7.53
2022-10-20T11:59:53.105Z,7.72
2022-10-20T12:02:29.397Z,8.68
2022-10-20T12:05:41.041Z,8.35
2022-10-20T12:08:36.224Z,10.18
2022-10-20T12:11:17.366Z,7.00
2022-10-20T12:14:08.338Z,9.25
2022-10-20T12:16:53.453Z,7.57
2022-10-20T12:19:30.113Z,7.13
2022-10-20T12:21:56.511Z,8.00
2022-10-20T12:24:35.011Z,5.72
2022-10-20T12:27:10.498Z,8.25
2022-10-20T12:29:36.876Z,8.02
2022-10-20T12:32:21.881Z,8.40
2022-10-20T12:34:53.863Z,7.43
2022-10-20T12:37:20.174Z,8.63
2022-10-20T12:39:47.254Z,7.57
2022-10-20T12:42:22.275Z,8.20
2022-10-20T12:44:50.045Z,9.88
2022-10-20T12:47:28.349Z,5.80
2022-10-20T12:50:23.230Z,9.52
2022-10-20T12:52:49.771Z,2.88
2022-10-20T12:58:18.706Z,10.85
2022-10-20T13:00:48.221Z,10.98
2022-10-20T13:03:44.245Z,9.48
2022-10-20T13:06:22.762Z,11.90
2022-10-20T13:09:04.727Z,11.40
2022-10-20T13:11:44.454Z,12.00
2022-10-20T13:14:13.876Z,11.23
2022-10-20T13:16:46.424Z,10.90
2022-10-20T13:19:22.886Z,12.32
2022-10-20T13:21:50.315Z,13.45
2022-10-20T13:24:27.870Z,13.20
2022-10-20T13:26:57.653Z,13.88
2022-10-20T13:29:33.190Z,15.18
2022-10-20T13:34:42.963Z,14.43
2022-10-20T13:37:22.555Z,15.70
2022-10-20T13:40:18.902Z,13.88
2022-10-20T13:43:13.999Z,15.25
2022-10-20T13:45:55.844Z,15.75
2022-10-20T13:48:43.324Z,14.35
2022-10-20T13:51:23.865Z,14.68
2022-10-20T13:53:54.316Z,14.68
2022-10-20T13:56:34.885Z,13.32
2022-10-20T13:59:05.530Z,12.43
2022-10-20T14:01:35.313Z,13.02
2022-10-20T14:04:01.827Z,12.68
2022-10-20T14:06:31.983Z,12.63
2022-10-20T14:09:08.875Z,11.73
2022-10-20T14:11:35.406Z,12.20
2022-10-20T14:14:02.604Z,9.80
2022-10-20T14:16:31.451Z,11.77
2022-10-20T14:19:05.695Z,11.70
2022-10-20T14:21:49.176Z,10.43
2022-10-20T14:24:28.582Z,12.32
2022-10-20T14:26:56.663Z,11.73
2022-10-20T14:29:24.770Z,11.68
2022-10-20T14:31:51.652Z,11.50
2022-10-20T14:34:22.175Z,11.23
2022-10-20T14:36:50.588Z,10.40
2022-10-20T14:39:36.283Z,10.13
2022-10-20T14:44:32.026Z,10.35
2022-10-20T14:47:05.311Z,10.15
2022-10-20T14:49:39.351Z,10.13
2022-10-20T14:52:21.217Z,9.30
2022-10-20T14:54:50.435Z,10.25
2022-10-20T14:57:16.772Z,8.50
2022-10-20T15:00:04.310Z,8.35
2022-10-20T15:02:38.502Z,9.10
2022-10-20T15:05:27.015Z,9.25
2022-10-20T15:07:54.076Z,9.23
2022-10-20T15:10:23.869Z,9.20
2022-10-20T15:12:53.191Z,8.75
2022-10-20T15:15:26.297Z,9.55
2022-10-20T15:18:10.035Z,9.00
2022-10-20T15:20:40.270Z,8.13
2022-10-20T15:23:14.666Z,9.45
2022-10-20T15:25:59.794Z,10.98
2022-10-20T15:28:35.421Z,7.90
2022-10-20T15:31:05.448Z,8.55
2022-10-20T15:33:32.531Z,8.68
2022-10-20T15:36:00.696Z,10.73
2022-10-20T15:38:27.741Z,9.13
2022-10-20T15:40:54.421Z,9.00
2022-10-20T15:43:21.172Z,7.72
2022-10-20T15:45:54.472Z,9.55
2022-10-20T15:48:23.999Z,9.15
2022-10-20T15:50:53.157Z,8.60
2022-10-20T15:53:19.813Z,8.48
2022-10-20T15:55:46.426Z,8.52
2022-10-20T15:58:13.242Z,9.20
2022-10-20T16:00:40.204Z,9.43
2022-10-20T16:03:06.943Z,10.77
2022-10-20T16:05:34.023Z,10.27
2022-10-20T16:08:00.710Z,9.98
2022-10-20T16:10:30.563Z,9.75
2022-10-20T16:12:58.128Z,9.70
2022-10-20T16:15:30.295Z,9.18
2022-10-20T16:17:58.202Z,9.27
2022-10-20T16:20:24.834Z,9.70
2022-10-20T16:22:51.223Z,9.27
2022-10-20T16:25:17.711Z,9.95
2022-10-20T16:27:44.189Z,8.80
2022-10-20T16:30:13.522Z,7.80
2022-10-20T16:32:40.294Z,9.23
2022-10-20T16:35:07.138Z,9.82
2022-10-20T16:37:34.071Z,10.00
2022-10-20T16:40:00.844Z,9.23
2022-10-20T16:42:30.256Z,11.25
2022-10-20T16:44:57.042Z,10.13
2022-10-20T16:47:25.334Z,10.75
2022-10-20T16:49:51.829Z,9.88
2022-10-20T16:52:18.359Z,11.25
2022-10-20T16:54:44.771Z,10.00
2022-10-20T16:57:11.557Z,11.02
2022-10-20T16:59:38.707Z,11.80
2022-10-20T17:02:06.093Z,11.15
2022-10-20T17:04:33.540Z,10.95
2022-10-20T17:06:59.927Z,20.67
2022-10-20T17:09:26.464Z,11.93
2022-10-20T17:11:52.843Z,12.48
2022-10-20T17:14:19.414Z,11.23
2022-10-20T17:16:47.248Z,10.55
2022-10-20T17:19:13.676Z,11.50
2022-10-20T17:21:40.179Z,10.77
2022-10-20T17:24:11.176Z,13.43
2022-10-20T17:26:38.475Z,12.13
2022-10-20T17:29:04.983Z,11.57
2022-10-20T17:31:31.728Z,12.43
2022-10-20T17:33:58.965Z,12.98
2022-10-20T17:36:26.486Z,12.60
2022-10-20T17:39:01.596Z,11.23
2022-10-20T17:41:29.026Z,12.95
2022-10-20T17:43:55.476Z,14.70
2022-10-20T17:46:21.956Z,15.95
2022-10-20T17:48:48.506Z,20.10
2022-10-20T17:51:23.255Z,17.10
2022-10-20T17:53:51.535Z,15.05
2022-10-20T17:56:23.823Z,13.43
2022-10-20T17:58:51.658Z,13.55
2022-10-20T18:01:23.639Z,13.07
2022-10-20T18:04:04.378Z,13.60
2022-10-20T18:06:34.811Z,12.23
2022-10-20T18:09:05.093Z,11.90
2022-10-20T18:11:33.351Z,13.57
2022-10-20T18:14:00.397Z,12.73
2022-10-20T18:16:29.286Z,12.43
2022-10-20T18:18:59.653Z,12.70
2022-10-20T18:21:28.259Z,13.30
2022-10-20T18:24:06.267Z,11.52
2022-10-20T18:26:35.036Z,13.95
2022-10-20T18:29:02.597Z,12.02
2022-10-20T18:31:31.556Z,12.52
2022-10-20T18:34:04.183Z,13.13
2022-10-20T18:36:33.140Z,12.80
2022-10-20T18:38:59.942Z,11.23
2022-10-20T18:41:32.957Z,11.73
2022-10-20T18:44:01.321Z,11.63
2022-10-20T18:46:29.865Z,11.57
2022-10-20T18:48:57.256Z,11.23
2022-10-20T18:51:24.042Z,10.95
2022-10-20T18:53:55.309Z,11.30
2022-10-20T18:56:23.834Z,12.60
2022-10-20T18:58:52.610Z,11.25
2022-10-20T19:01:21.647Z,12.27
2022-10-20T19:03:50.471Z,11.32
2022-10-20T19:06:20.075Z,12.32
2022-10-20T19:08:51.034Z,11.65
2022-10-20T19:11:17.526Z,11.43
2022-10-20T19:13:43.931Z,11.48
2022-10-20T19:16:15.995Z,10.52
2022-10-20T19:18:47.699Z,12.02
2022-10-20T19:21:14.740Z,11.55
2022-10-20T19:24:09.095Z,10.23
2022-10-20T19:26:40.403Z,10.82
2022-10-20T19:29:10.336Z,9.10
2022-10-20T19:32:06.371Z,10.23
2022-10-20T19:34:38.862Z,9.63
2022-10-20T19:37:06.084Z,10.57
2022-10-20T19:39:36.944Z,10.07
2022-10-20T19:42:05.218Z,9.80
2022-10-20T19:44:32.082Z,10.05
2022-10-20T19:46:59.066Z,8.82
2022-10-20T19:49:26.395Z,10.63
2022-10-20T19:51:53.477Z,10.63
2022-10-20T19:54:20.356Z,10.80
2022-10-20T19:56:46.826Z,10.27
2022-10-20T19:59:13.800Z,9.27
2022-10-20T20:01:40.339Z,12.07
2022-10-20T20:04:07.136Z,10.48
2022-10-20T20:06:34.684Z,10.27
2022-10-20T20:09:04.433Z,10.15
2022-10-20T20:11:31.189Z,9.68
2022-10-20T20:14:01.820Z,9.57
2022-10-20T20:16:29.301Z,9.77
2022-10-20T20:18:56.178Z,10.23
2022-10-20T20:21:23.215Z,10.48
2022-10-20T20:23:59.248Z,9.75
2022-10-20T20:26:30.956Z,10.48
2022-10-20T20:28:58.254Z,10.38
2022-10-20T20:31:25.587Z,10.23
2022-10-20T20:33:53.059Z,10.18
2022-10-20T20:36:20.189Z,11.27
2022-10-20T20:38:46.797Z,10.48
2022-10-20T20:41:18.073Z,10.52
2022-10-20T20:43:45.266Z,10.00
2022-10-20T20:46:14.232Z,9.32
2022-10-20T20:48:40.684Z,9.75
2022-10-20T20:51:07.609Z,9.82
2022-10-20T20:53:36.062Z,8.65
2022-10-20T20:56:09.455Z,7.93
2022-10-20T20:58:37.385Z,8.15
2022-10-20T21:01:19.186Z,8.50
2022-10-20T21:03:46.297Z,9.13
2022-10-20T21:06:16.365Z,8.93
2022-10-20T21:08:46.376Z,8.23
2022-10-20T21:11:26.168Z,8.43
2022-10-20T21:13:54.763Z,6.47
2022-10-20T21:16:24.223Z,7.72
2022-10-20T21:18:52.911Z,7.07
2022-10-20T21:21:28.071Z,7.38
2022-10-20T21:23:56.258Z,8.18
2022-10-20T21:26:23.466Z,6.78
2022-10-20T21:28:50.700Z,7.25
2022-10-20T21:31:19.900Z,7.28
2022-10-20T21:33:50.483Z,8.00
2022-10-20T21:36:18.492Z,7.03
2022-10-20T21:38:45.538Z,7.50
2022-10-20T21:41:17.786Z,8.25
2022-10-20T21:43:48.146Z,8.05
2022-10-20T21:46:22.078Z,7.90
2022-10-20T21:48:50.425Z,8.25
2022-10-20T21:51:26.370Z,6.95
2022-10-20T21:53:57.744Z,7.50
2022-10-20T21:56:25.418Z,7.50
2022-10-20T21:58:53.318Z,6.07
2022-10-20T22:01:22.504Z,9.15
2022-10-20T22:03:49.907Z,9.10
2022-10-20T22:06:18.457Z,8.27
2022-10-20T22:08:47.601Z,8.45
2022-10-20T22:11:20.964Z,8.02
2022-10-20T22:13:48.109Z,8.55
2022-10-20T22:16:17.512Z,8.35
2022-10-20T22:18:44.194Z,7.80
2022-10-20T22:21:13.893Z,9.25
2022-10-20T22:23:41.317Z,8.25
2022-10-20T22:26:08.308Z,9.20
2022-10-20T22:28:34.740Z,8.88
2022-10-20T22:33:33.366Z,8.98
2022-10-20T22:36:00.348Z,7.20
2022-10-20T22:38:26.972Z,8.98
2022-10-20T22:40:58.509Z,5.95
2022-10-20T22:43:25.091Z,7.72
2022-10-20T22:45:51.497Z,8.10
2022-10-20T22:48:17.910Z,8.75
2022-10-20T22:50:44.303Z,8.50
2022-10-20T22:53:11.184Z,8.23
2022-10-20T22:55:37.660Z,8.38
2022-10-20T22:58:04.738Z,6.20
2022-10-20T23:00:31.432Z,8.73
2022-10-20T23:02:58.431Z,9.00
2022-10-20T23:05:24.883Z,6.28
2022-10-20T23:07:51.331Z,8.93
2022-10-20T23:10:17.975Z,3.58
2022-10-20T23:12:44.381Z,6.63
2022-10-20T23:15:10.927Z,9.52
2022-10-20T23:17:37.819Z,8.45
2022-10-20T23:20:05.024Z,8.75
2022-10-20T23:22:31.658Z,7.47
2022-10-20T23:24:58.150Z,8.10
2022-10-20T23:27:24.560Z,9.32
2022-10-20T23:29:50.987Z,8.02
2022-10-20T23:32:17.394Z,7.47
2022-10-20T23:34:43.820Z,7.63
2022-10-20T23:37:10.250Z,7.68
2022-10-20T23:39:36.689Z,8.10
2022-10-20T23:42:06.363Z,7.38
2022-10-20T23:44:36.882Z,7.20
2022-10-20T23:47:03.660Z,7.63
2022-10-20T23:49:30.288Z,7.95
2022-10-20T23:51:56.689Z,7.78
2022-10-20T23:54:23.110Z,7.72
2022-10-20T23:56:50.945Z,9.57
2022-10-20T23:59:26.223Z,4.65
